createdAt,value
2023-05-13T00:04:53.365Z,3.45
2023-05-13T00:09:57.094Z,3.00
2023-05-13T00:14:59.227Z,2.78
2023-05-13T00:20:01.465Z,3.30
2023-05-13T00:25:05.707Z,3.42
2023-05-13T00:30:09.310Z,3.60
2023-05-13T00:35:11.480Z,3.58
2023-05-13T00:40:20.394Z,3.55
2023-05-13T00:45:22.954Z,4.13
2023-05-13T00:50:25.446Z,3.45
2023-05-13T00:55:29.104Z,3.92
2023-05-13T01:00:35.087Z,4.78
2023-05-13T01:05:43.386Z,4.88
2023-05-13T01:10:50.542Z,5.25
2023-05-13T01:15:59.522Z,5.93
2023-05-13T01:21:03.614Z,5.03
2023-05-13T01:26:07.283Z,5.10
2023-05-13T01:31:09.889Z,4.82
2023-05-13T01:36:12.172Z,5.03
2023-05-13T01:41:15.972Z,5.15
2023-05-13T01:46:18.556Z,5.22
2023-05-13T01:51:20.885Z,5.47
2023-05-13T01:56:24.541Z,5.68
2023-05-13T02:01:26.721Z,6.60
2023-05-13T02:06:29.010Z,5.93
2023-05-13T02:11:32.695Z,5.70
2023-05-13T02:16:35.109Z,6.50
2023-05-13T02:21:37.439Z,6.65
2023-05-13T02:26:41.051Z,7.10
2023-05-13T02:31:43.366Z,7.18
2023-05-13T02:36:45.731Z,7.43
2023-05-13T02:41:49.330Z,7.22
2023-05-13T02:46:51.619Z,7.45
2023-05-13T02:51:53.785Z,8.05
2023-05-13T02:56:57.436Z,8.07
2023-05-13T03:01:59.641Z,7.65
2023-05-13T03:07:01.856Z,8.20
2023-05-13T03:12:06.349Z,9.18
2023-05-13T03:17:08.606Z,8.52
2023-05-13T03:22:10.839Z,8.05
2023-05-13T03:27:14.533Z,8.02
2023-05-13T03:32:16.737Z,8.68
2023-05-13T03:37:18.910Z,9.07
2023-05-13T03:42:22.866Z,10.52
2023-05-13T03:47:25.312Z,9.73
2023-05-13T03:52:27.679Z,8.95
2023-05-13T03:57:31.420Z,9.32
2023-05-13T04:02:33.810Z,9.02
2023-05-13T04:07:36.183Z,9.23
2023-05-13T04:12:40.028Z,8.25
2023-05-13T04:17:42.272Z,8.30
2023-05-13T04:22:44.628Z,8.13
2023-05-13T04:27:48.279Z,7.38
2023-05-13T04:32:50.593Z,7.95
2023-05-13T04:37:52.762Z,7.38
2023-05-13T04:42:56.483Z,7.85
2023-05-13T04:47:58.761Z,6.97
2023-05-13T04:53:00.996Z,7.00
2023-05-13T04:58:04.652Z,6.88
2023-05-13T05:03:06.927Z,6.45
2023-05-13T05:08:09.250Z,6.22
2023-05-13T05:13:12.961Z,6.38
2023-05-13T05:18:15.169Z,5.80
2023-05-13T05:23:17.600Z,5.75
2023-05-13T05:28:21.206Z,5.22
2023-05-13T05:33:23.763Z,4.93
2023-05-13T05:38:25.935Z,5.43
2023-05-13T05:43:29.572Z,5.70
2023-05-13T05:48:33.823Z,5.18
2023-05-13T05:53:37.031Z,4.78
2023-05-13T05:58:40.780Z,4.47
2023-05-13T06:03:43.146Z,4.18
2023-05-13T06:08:45.455Z,4.47
2023-05-13T06:13:49.105Z,4.32
2023-05-13T06:18:51.418Z,4.38
2023-05-13T06:23:53.779Z,3.88
2023-05-13T06:28:57.580Z,4.47
2023-05-13T06:33:59.742Z,4.03
2023-05-13T06:39:01.968Z,3.70
2023-05-13T06:44:07.267Z,3.72
2023-05-13T06:49:09.494Z,5.43
2023-05-13T06:54:11.800Z,4.18
2023-05-13T06:59:15.550Z,3.70
2023-05-13T07:04:17.780Z,4.32
2023-05-13T07:09:20.076Z,4.15
2023-05-13T07:14:23.734Z,11.82
2023-05-13T07:19:25.964Z,4.13
2023-05-13T07:24:28.287Z,3.80
2023-05-13T07:29:32.565Z,4.75
2023-05-13T07:34:34.777Z,4.13
2023-05-13T07:39:36.937Z,3.63
2023-05-13T07:44:40.681Z,3.00
2023-05-13T07:49:42.881Z,3.28
2023-05-13T07:54:45.049Z,3.40
2023-05-13T07:59:48.701Z,3.20
2023-05-13T08:04:51.047Z,2.97
2023-05-13T08:09:53.481Z,2.97
2023-05-13T08:14:57.154Z,3.10
2023-05-13T08:20:00.881Z,3.00
2023-05-13T08:25:03.288Z,3.20
2023-05-13T08:30:08.677Z,3.13
2023-05-13T08:35:11.065Z,2.65
2023-05-13T08:40:13.456Z,3.88
2023-05-13T08:45:21.432Z,2.90
2023-05-13T08:50:25.043Z,2.83
2023-05-13T08:55:27.883Z,2.30
2023-05-13T09:00:31.914Z,2.42
2023-05-13T09:05:37.745Z,2.67
2023-05-13T09:10:41.162Z,2.47
2023-05-13T09:15:45.281Z,3.58
2023-05-13T09:20:47.609Z,3.03
2023-05-13T09:25:51.810Z,2.40
2023-05-13T09:30:58.240Z,2.63
2023-05-13T09:36:03.660Z,9.25
2023-05-13T09:41:06.006Z,3.10
2023-05-13T09:46:10.533Z,2.50
2023-05-13T09:51:15.131Z,2.10
2023-05-13T09:56:22.336Z,2.27
2023-05-13T10:01:27.927Z,2.20
2023-05-13T10:06:31.306Z,2.80
2023-05-13T10:11:35.842Z,2.58
2023-05-13T10:16:39.760Z,2.47
2023-05-13T10:21:42.199Z,1.80
2023-05-13T10:26:45.298Z,2.28
2023-05-13T10:31:51.219Z,2.67
2023-05-13T10:37:14.750Z,2.22
2023-05-13T10:42:39.619Z,3.00
2023-05-13T10:47:43.478Z,2.23
2023-05-13T10:52:47.859Z,2.90
2023-05-13T10:58:10.497Z,2.20
2023-05-13T11:03:28.814Z,2.40
2023-05-13T11:08:38.511Z,2.65
2023-05-13T11:13:40.774Z,2.15
2023-05-13T11:18:44.810Z,2.17
2023-05-13T11:23:56.293Z,2.40
2023-05-13T11:29:00.456Z,2.85
2023-05-13T11:34:12.732Z,2.25
2023-05-13T11:39:17.018Z,2.30
2023-05-13T11:44:20.546Z,1.90
2023-05-13T11:49:39.896Z,2.00
2023-05-13T11:54:44.168Z,2.38
2023-05-13T11:59:55.523Z,2.55
2023-05-13T12:05:03.031Z,2.20
2023-05-13T12:10:07.093Z,2.38
2023-05-13T12:15:12.429Z,2.38
2023-05-13T12:20:16.978Z,2.38
2023-05-13T12:25:39.525Z,2.15
2023-05-13T12:30:43.558Z,2.50
2023-05-13T12:35:48.465Z,2.50
2023-05-13T12:40:51.616Z,3.08
2023-05-13T12:45:54.241Z,2.60
2023-05-13T12:50:59.553Z,2.00
2023-05-13T13:01:06.052Z,2.70
2023-05-13T13:06:09.854Z,3.33
2023-05-13T13:11:12.169Z,3.15
2023-05-13T13:16:14.888Z,2.90
2023-05-13T13:21:18.877Z,3.00
2023-05-13T13:26:22.048Z,2.65
2023-05-13T13:31:24.255Z,2.28
2023-05-13T13:36:27.907Z,2.53
2023-05-13T13:41:30.145Z,2.53
2023-05-13T13:46:32.503Z,2.55
2023-05-13T13:51:36.076Z,2.50
2023-05-13T13:56:38.623Z,2.28
2023-05-13T14:01:40.868Z,2.42
2023-05-13T14:06:45.486Z,2.30
2023-05-13T14:11:48.033Z,3.10
2023-05-13T14:16:50.423Z,2.65
2023-05-13T14:21:54.066Z,2.17
2023-05-13T14:26:56.325Z,2.28
2023-05-13T14:32:05.054Z,2.00
2023-05-13T14:37:09.885Z,2.28
2023-05-13T14:42:12.224Z,1.90
2023-05-13T14:47:23.215Z,2.13
2023-05-13T14:52:37.498Z,1.90
2023-05-13T14:57:45.448Z,1.80
2023-05-13T15:03:01.023Z,1.85
2023-05-13T15:08:15.608Z,2.17
2023-05-13T15:13:18.787Z,2.10
2023-05-13T15:18:21.209Z,1.98
2023-05-13T15:23:24.844Z,1.80
2023-05-13T15:28:27.123Z,1.63
2023-05-13T15:33:29.363Z,2.00
2023-05-13T15:38:33.078Z,2.08
2023-05-13T15:43:35.423Z,2.55
2023-05-13T15:48:37.728Z,2.08
2023-05-13T15:53:41.469Z,1.95
2023-05-13T15:58:43.610Z,2.22
2023-05-13T16:03:45.834Z,2.17
2023-05-13T16:08:49.545Z,1.80
2023-05-13T16:13:52.573Z,1.88
2023-05-13T16:18:54.980Z,2.20
2023-05-13T16:23:59.036Z,1.67
2023-05-13T16:29:01.313Z,1.92
2023-05-13T16:34:03.643Z,1.90
2023-05-13T16:39:07.235Z,2.10
2023-05-13T16:44:09.621Z,2.03
2023-05-13T16:49:11.948Z,2.00
2023-05-13T16:54:15.902Z,2.00
2023-05-13T16:59:22.089Z,1.85
2023-05-13T17:04:24.352Z,1.77
2023-05-13T17:09:29.578Z,1.83
2023-05-13T17:14:31.847Z,1.98
2023-05-13T17:19:34.167Z,2.03
2023-05-13T17:24:37.842Z,2.40
2023-05-13T17:29:40.048Z,2.17
2023-05-13T17:34:42.177Z,2.40
2023-05-13T17:39:45.853Z,2.17
2023-05-13T17:44:48.381Z,2.05
2023-05-13T17:49:50.886Z,2.20
2023-05-13T17:54:54.601Z,2.30
2023-05-13T17:59:56.783Z,2.40
2023-05-13T18:04:59.043Z,2.85
2023-05-13T18:10:02.870Z,2.38
2023-05-13T18:15:06.420Z,2.78
2023-05-13T18:20:09.660Z,2.60
2023-05-13T18:25:13.497Z,2.50
2023-05-13T18:30:16.107Z,3.20
2023-05-13T18:35:18.579Z,3.42
2023-05-13T18:40:22.554Z,2.70
2023-05-13T18:45:25.163Z,2.40
2023-05-13T18:50:27.512Z,2.60
2023-05-13T18:55:31.236Z,2.58
2023-05-13T19:00:33.506Z,2.65
2023-05-13T19:05:35.860Z,14.27
2023-05-13T19:10:40.191Z,4.50
2023-05-13T19:15:42.999Z,2.85
2023-05-13T19:20:45.752Z,3.00
2023-05-13T19:25:49.356Z,2.97
2023-05-13T19:30:52.267Z,2.95
2023-05-13T19:35:54.714Z,3.20
2023-05-13T19:40:58.388Z,3.08
2023-05-13T19:46:00.713Z,3.33
2023-05-13T19:51:03.069Z,3.05
2023-05-13T19:56:06.839Z,3.33
2023-05-13T20:01:09.016Z,3.38
2023-05-13T20:06:11.165Z,3.10
2023-05-13T20:11:14.914Z,3.45
2023-05-13T20:16:17.120Z,3.80
2023-05-13T20:21:19.311Z,3.33
2023-05-13T20:26:22.918Z,3.10
2023-05-13T20:31:25.167Z,3.53
2023-05-13T20:36:27.486Z,3.78
2023-05-13T20:41:31.155Z,3.72
2023-05-13T20:46:33.507Z,4.22
2023-05-13T20:51:35.813Z,3.80
2023-05-13T20:56:39.731Z,3.90
2023-05-13T21:01:43.665Z,3.63
2023-05-13T21:06:45.961Z,3.63
2023-05-13T21:11:49.727Z,4.18
2023-05-13T21:16:51.943Z,3.95
2023-05-13T21:21:54.168Z,4.28
2023-05-13T21:26:57.788Z,4.45
2023-05-13T21:32:00.006Z,4.07
2023-05-13T21:37:02.180Z,4.38
2023-05-13T21:42:06.333Z,4.22
2023-05-13T21:47:08.642Z,4.95
2023-05-13T21:52:10.844Z,4.70
2023-05-13T21:57:14.391Z,4.65
2023-05-13T22:02:16.661Z,4.47
2023-05-13T22:07:18.983Z,4.10
2023-05-13T22:12:22.618Z,4.78
2023-05-13T22:17:25.014Z,4.15
2023-05-13T22:22:27.523Z,4.45
2023-05-13T22:27:31.171Z,4.03
2023-05-13T22:32:33.428Z,4.93
2023-05-13T22:37:35.665Z,4.43
2023-05-13T22:42:39.302Z,5.03
2023-05-13T22:47:41.535Z,4.68
2023-05-13T22:52:43.743Z,4.93
2023-05-13T22:57:47.488Z,5.20
2023-05-13T23:02:49.863Z,4.82
2023-05-13T23:07:52.214Z,5.55
2023-05-13T23:12:55.847Z,4.85
2023-05-13T23:17:58.122Z,4.30
2023-05-13T23:23:00.443Z,5.35
2023-05-13T23:28:04.087Z,4.32
2023-05-13T23:33:06.393Z,6.10
2023-05-13T23:38:08.639Z,7.43
2023-05-13T23:43:13.717Z,5.38
2023-05-13T23:48:15.897Z,5.60
2023-05-13T23:53:18.124Z,5.57
2023-05-13T23:58:21.814Z,6.05
